Barfleur — FNIE — position and weather

sailwx.info

Track history (hours):
 
Tides and Currents Weather Stations Pressure Air Temp Water Temp Dewpoint Dewpoint Depression Visibility Wind Speed Wind Dir Waves Ship Positions

Barfleur

Operator: Brittany Ferries

Last reported at 2017-Mar-30 14:33 UTC. Time now 2017-Mar-30 14:39 UTC.
Position N 49°39' W 001°37'.

Length 158 m; draft 5 m.

Type: Passenger vessel. MMSI: 227289000.

Date/timePositionNaut miles runAvg speedWind from/ knotsBaromVisibWave heightAir tempDewpointWater temp
2017-Mar-30 14:33N 49°39' W 001°37'0 0.0
2017-Mar-30 13:33N 49°39' W 001°37'0 0.0
2017-Mar-30 12:33N 49°39' W 001°37'0 0.0
2017-Mar-30 11:33N 49°39' W 001°37'1414.2
2017-Mar-30 10:34N 49°53' W 001°39'1818.2
2017-Mar-30 09:33N 50°11' W 001°44'1818.1
2017-Mar-30 08:34N 50°28' W 001°51'1413.9
2017-Mar-30 07:33N 50°42' W 001°57'2 1.6
2017-Mar-30 06:33N 50°42' W 001°59'1 1.3
2017-Mar-30 05:33N 50°42' W 001°58'1312.8
2017-Mar-30 04:31N 50°30' W 001°51'1313.5
2017-Mar-30 03:32N 50°16' W 001°50'1313.0
2017-Mar-30 02:33N 50°03' W 001°50'1413.7
2017-Mar-30 01:33N 49°50' W 001°48'6 6.3
2017-Mar-30 00:33N 49°44' W 001°44'1 1.2
2017-Mar-29 23:33N 49°43' W 001°43'0 0.2
2017-Mar-29 22:33N 49°43' W 001°43'1 0.7
2017-Mar-29 21:34N 49°43' W 001°44'4 4.4
2017-Mar-29 20:33N 49°40' W 001°39'2 2.0
2017-Mar-29 19:33N 49°39' W 001°37'0 0.0
2017-Mar-29 18:33N 49°39' W 001°37'0 0.0
2017-Mar-29 17:33N 49°39' W 001°37'0 0.0
2017-Mar-29 16:33N 49°39' W 001°37'0 0.0
2017-Mar-29 15:34N 49°39' W 001°37'0 0.0
2017-Mar-29 14:34N 49°39' W 001°37'0 0.0
2017-Mar-29 13:33N 49°39' W 001°37'0 0.1
2017-Mar-29 12:33N 49°39' W 001°37'2 1.5
2017-Mar-29 11:33N 49°40' W 001°38'1717.1
2017-Mar-29 10:33N 49°57' W 001°41'1817.7
2017-Mar-29 09:34N 50°14' W 001°45'1817.8
2017-Mar-29 08:34N 50°32' W 001°52'1211.7
2017-Mar-29 07:33N 50°42' W 001°59'0 0.0
2017-Mar-29 06:33N 50°42' W 001°59'0 0.4
2017-Mar-29 05:33N 50°42' W 001°59'1413.5
2017-Mar-29 04:33N 50°29' W 001°53'1814.3
2017-Mar-29 03:17N 50°11' W 001°52'1013.5
2017-Mar-29 02:33N 50°01' W 001°51'1413.9
2017-Mar-29 01:34N 49°48' W 001°48'3 3.4
2017-Mar-29 00:33N 49°46' W 001°43'1 1.3
2017-Mar-28 23:33N 49°45' W 001°42'1 1.0
2017-Mar-28 22:34N 49°44' W 001°43'1 0.9
2017-Mar-28 21:33N 49°44' W 001°44'4 4.0
2017-Mar-28 20:33N 49°41' W 001°40'3 2.6
2017-Mar-28 19:34N 49°39' W 001°37'0 0.0
2017-Mar-28 18:33N 49°39' W 001°37'0 0.0
2017-Mar-28 17:33N 49°39' W 001°37'0 0.0
2017-Mar-28 16:33N 49°39' W 001°37'0 0.0
2017-Mar-28 15:33N 49°39' W 001°37'0 0.0
2017-Mar-28 14:33N 49°39' W 001°37'0 0.0
2017-Mar-28 13:33N 49°39' W 001°37'0 0.0
2017-Mar-28 12:33N 49°39' W 001°37'0 0.2
2017-Mar-28 11:34N 49°39' W 001°37'1514.6
2017-Mar-28 10:33N 49°53' W 001°43'1818.2
2017-Mar-28 09:33N 50°11' W 001°47'1818.2
2017-Mar-28 08:33N 50°29' W 001°51'1413.8
2017-Mar-28 07:34N 50°42' W 001°58'1 0.8
2017-Mar-28 06:34N 50°42' W 001°59'0 0.0
2017-Mar-28 05:33N 50°42' W 001°59'0 0.0
2017-Mar-28 04:33N 50°42' W 001°59'0 0.0
2017-Mar-28 03:33N 50°42' W 001°59'0 0.0
2017-Mar-28 02:33N 50°42' W 001°59'0 0.0
2017-Mar-28 01:33N 50°42' W 001°59'0 0.0
2017-Mar-28 00:33N 50°42' W 001°59'0 0.0
2017-Mar-27 23:33N 50°42' W 001°59'0 0.0
2017-Mar-27 22:33N 50°42' W 001°59'0 0.0
2017-Mar-27 21:33N 50°42' W 001°59'0 0.0
2017-Mar-27 20:33N 50°42' W 001°59'1211.8
2017-Mar-27 19:33N 50°32' W 001°52'1818.1
2017-Mar-27 18:33N 50°14' W 001°48'1818.1
2017-Mar-27 17:33N 49°56' W 001°42'1616.3
2017-Mar-27 16:34N 49°40' W 001°38'1 1.2
2017-Mar-27 15:33N 49°39' W 001°37'0 0.0
2017-Mar-27 14:34N 49°39' W 001°37'0 0.0
2017-Mar-27 13:34N 49°39' W 001°37'0 0.0
2017-Mar-27 12:33N 49°39' W 001°37'0 0.1
2017-Mar-27 11:34N 49°39' W 001°37'1313.3
2017-Mar-27 10:33N 49°52' W 001°43'1717.1
2017-Mar-27 09:33N 50°09' W 001°47'2018.7
2017-Mar-27 08:29N 50°29' W 001°51'1415.1
2017-Mar-27 07:34N 50°42' W 001°57'2 1.5
2017-Mar-27 06:34N 50°42' W 001°59'0 0.0
2017-Mar-27 05:33N 50°42' W 001°59'0 0.0
2017-Mar-27 04:33N 50°42' W 001°59'0 0.0
2017-Mar-27 03:34N 50°42' W 001°59'0 0.0
2017-Mar-27 02:34N 50°42' W 001°59'0 0.0
2017-Mar-27 01:34N 50°42' W 001°59'0 0.0
2017-Mar-27 00:33N 50°42' W 001°59'0 0.0
2017-Mar-26 23:33N 50°42' W 001°59'0 0.0
2017-Mar-26 22:33N 50°42' W 001°59'0 0.0
2017-Mar-26 21:34N 50°42' W 001°59'0 0.0
2017-Mar-26 20:34N 50°42' W 001°59'1211.9
2017-Mar-26 19:33N 50°31' W 001°52'1818.1
2017-Mar-26 18:33N 50°14' W 001°47'1818.0
2017-Mar-26 17:33N 49°56' W 001°43'1716.5
2017-Mar-26 16:34N 49°40' W 001°37'1 1.0
2017-Mar-26 15:33N 49°39' W 001°37'0 0.0
2017-Mar-26 14:34N 49°39' W 001°37'0 0.0
2017-Mar-26 13:33N 49°39' W 001°37'0 0.0
2017-Mar-26 12:33N 49°39' W 001°37'0 0.0
2017-Mar-26 11:33N 49°39' W 001°37'1312.5
2017-Mar-26 10:34N 49°50' W 001°45'1817.9
2017-Mar-26 09:33N 50°08' W 001°50'1918.3
2017-Mar-26 08:30N 50°27' W 001°51'1515.8
2017-Mar-26 07:34N 50°42' W 001°57'2 1.7
2017-Mar-26 06:34N 50°42' W 001°59'0 0.0
2017-Mar-26 05:34N 50°42' W 001°59'0 0.0
2017-Mar-26 04:34N 50°42' W 001°59'0 0.0
2017-Mar-26 03:34N 50°42' W 001°59'0 0.0
2017-Mar-26 02:34N 50°42' W 001°59'0 0.0
2017-Mar-26 01:34N 50°42' W 001°59'0 0.0
2017-Mar-26 00:33N 50°42' W 001°59'0 0.0
2017-Mar-25 23:33N 50°42' W 001°59'0 0.0
2017-Mar-25 22:33N 50°42' W 001°59'4 4.2
2017-Mar-25 21:33N 50°39' W 001°55'3617.3
2017-Mar-25 19:27N 50°04' W 001°42'1517.0
2017-Mar-25 18:33N 49°49' W 001°40'1010.1
2017-Mar-25 17:33N 49°39' W 001°37'0 0.0
2017-Mar-25 16:33N 49°39' W 001°37'0 0.0
2017-Mar-25 15:33N 49°39' W 001°37'0 0.0
2017-Mar-25 14:33N 49°39' W 001°37'0 0.0
2017-Mar-25 13:33N 49°39' W 001°37'0 0.5
2017-Mar-25 12:33N 49°39' W 001°37'1313.4
2017-Mar-25 11:33N 49°52' W 001°43'1817.8
2017-Mar-25 10:34N 50°10' W 001°47'1918.4
2017-Mar-25 09:32N 50°28' W 001°52'1515.0
2017-Mar-25 08:33N 50°42' W 001°59'1 0.5
2017-Mar-25 07:33N 50°42' W 001°59'0 0.0
2017-Mar-25 06:33N 50°42' W 001°59'0 0.0
2017-Mar-25 05:33N 50°42' W 001°59'0 0.0
2017-Mar-25 04:33N 50°42' W 001°59'0 0.0
2017-Mar-25 03:33N 50°42' W 001°59'0 0.0
2017-Mar-25 02:33N 50°42' W 001°59'0 0.0
2017-Mar-25 01:33N 50°42' W 001°59'0 0.0
2017-Mar-25 00:33N 50°42' W 001°59'0 0.0
2017-Mar-24 23:33N 50°42' W 001°59'0 0.0
2017-Mar-24 22:33N 50°42' W 001°59'0 0.1
2017-Mar-24 21:33N 50°42' W 001°59'1312.9
2017-Mar-24 20:33N 50°30' W 001°54'2317.4
2017-Mar-24 19:14N 50°07' W 001°51'1217.1
2017-Mar-24 18:33N 49°56' W 001°43'1716.8
2017-Mar-24 17:33N 49°40' W 001°38'1 1.3
2017-Mar-24 16:33N 49°39' W 001°37'0 0.0
2017-Mar-24 15:34N 49°39' W 001°37'0 0.0
2017-Mar-24 14:33N 49°39' W 001°37'0 0.0
2017-Mar-24 13:33N 49°39' W 001°37'0 0.3
2017-Mar-24 12:34N 49°39' W 001°37'1514.9
2017-Mar-24 11:33N 49°53' W 001°44'1818.0
2017-Mar-24 10:34N 50°11' W 001°47'1818.1
2017-Mar-24 09:33N 50°29' W 001°51'1414.2
2017-Mar-24 08:33N 50°42' W 001°59'0 0.2
2017-Mar-24 07:33N 50°42' W 001°59'0 0.3
2017-Mar-24 06:33N 50°42' W 001°59'6 6.0
2017-Mar-24 05:33N 50°39' W 001°51'1 0.8
2017-Mar-24 04:33N 50°39' W 001°50'1 0.8
2017-Mar-24 03:33N 50°38' W 001°49'1 0.6
2017-Mar-24 02:33N 50°38' W 001°48'2411.5
2017-Mar-24 00:29N 50°14' W 001°48'1111.8
2017-Mar-23 23:33N 50°04' W 001°45'1211.7
2017-Mar-23 22:33N 49°52' W 001°43'1212.0
2017-Mar-23 21:33N 49°40' W 001°39'2 1.8
2017-Mar-23 20:33N 49°39' W 001°37'0 0.0
2017-Mar-23 19:33N 49°39' W 001°37'0 0.0
2017-Mar-23 18:34N 49°39' W 001°37'0 0.0
2017-Mar-23 17:33N 49°39' W 001°37'0 0.0
2017-Mar-23 16:33N 49°39' W 001°37'0 0.0
2017-Mar-23 15:34N 49°39' W 001°37'0 0.0
2017-Mar-23 14:34N 49°39' W 001°37'0 0.0
2017-Mar-23 13:34N 49°39' W 001°37'0 0.0
2017-Mar-23 12:33N 49°39' W 001°37'1413.8
2017-Mar-23 11:34N 49°53' W 001°39'1817.9
2017-Mar-23 10:33N 50°10' W 001°47'1918.3
2017-Mar-23 09:32N 50°28' W 001°52'1414.9
2017-Mar-23 08:33N 50°42' W 001°58'1 0.8
2017-Mar-23 07:33N 50°42' W 001°59'1 1.4
2017-Mar-23 06:34N 50°42' W 001°57'1313.4
2017-Mar-23 05:33N 50°29' W 001°51'3015.2
2017-Mar-23 03:33N 49°59' W 001°44'1514.6
2017-Mar-23 02:33N 49°45' W 001°40'3 2.6
2017-Mar-23 01:33N 49°42' W 001°40'1 0.7
2017-Mar-23 00:33N 49°42' W 001°39'1 1.4
2017-Mar-22 23:33N 49°43' W 001°37'1 1.4
2017-Mar-22 22:33N 49°43' W 001°35'4 3.9
2017-Mar-22 21:33N 49°40' W 001°39'2 1.8
2017-Mar-22 20:33N 49°39' W 001°37'0 0.0
2017-Mar-22 19:33N 49°39' W 001°37'0 0.0
2017-Mar-22 18:33N 49°39' W 001°37'0 0.0
2017-Mar-22 17:33N 49°39' W 001°37'0 0.0
2017-Mar-22 16:33N 49°39' W 001°37'0 0.0
2017-Mar-22 15:33N 49°39' W 001°37'0 0.0
2017-Mar-22 14:33N 49°39' W 001°37'1 1.2
2017-Mar-22 13:33N 49°40' W 001°36'1817.6
2017-Mar-22 12:33N 49°57' W 001°39'1817.9
2017-Mar-22 11:33N 50°15' W 001°46'1817.7
2017-Mar-22 10:34N 50°32' W 001°52'1111.3
2017-Mar-22 09:33N 50°42' W 001°59'0 0.0
2017-Mar-22 08:33N 50°42' W 001°59'4 4.4
2017-Mar-22 07:33N 50°39' W 001°55'4 3.6
2017-Mar-22 06:33N 50°36' W 001°54'3213.3
2017-Mar-22 04:11N 50°04' W 001°49'914.6
2017-Mar-22 03:33N 49°55' W 001°46'1110.8
2017-Mar-22 02:33N 49°44' W 001°44'7 7.3
2017-Mar-22 01:33N 49°46' W 001°33'2 2.0
2017-Mar-22 00:33N 49°48' W 001°31'3 2.8
2017-Mar-21 23:33N 49°46' W 001°34'2 1.6
2017-Mar-21 22:33N 49°44' W 001°35'5 4.7
2017-Mar-21 21:33N 49°40' W 001°39'2 2.1
2017-Mar-21 20:33N 49°39' W 001°37'0 0.0
2017-Mar-21 19:33N 49°39' W 001°37'0 0.0
2017-Mar-21 18:34N 49°39' W 001°37'0 0.0
2017-Mar-21 17:33N 49°39' W 001°37'0 0.0
2017-Mar-21 16:34N 49°39' W 001°37'0 0.0
2017-Mar-21 15:34N 49°39' W 001°37'0 0.0
2017-Mar-21 14:33N 49°39' W 001°37'0 0.0
2017-Mar-21 13:33N 49°39' W 001°37'0 0.0
2017-Mar-21 12:33N 49°39' W 001°37'1313.4
2017-Mar-21 11:33N 49°52' W 001°39'1717.5
2017-Mar-21 10:33N 50°09' W 001°44'1918.2
2017-Mar-21 09:32N 50°27' W 001°51'1515.6
2017-Mar-21 08:33N 50°42' W 001°58'1 1.2
2017-Mar-21 07:33N 50°42' W 001°59'0 0.0
2017-Mar-21 06:33N 50°42' W 001°59'0 0.0
2017-Mar-21 05:33N 50°42' W 001°59'0 0.0
2017-Mar-21 04:33N 50°42' W 001°59'0 0.0
2017-Mar-21 03:33N 50°42' W 001°59'0 0.0
2017-Mar-21 02:33N 50°42' W 001°59'0 0.0
2017-Mar-21 01:33N 50°42' W 001°59'0 0.0
2017-Mar-21 00:33N 50°42' W 001°59'0 0.0
2017-Mar-20 23:33N 50°42' W 001°59'0 0.0
2017-Mar-20 22:33N 50°42' W 001°59'0 0.0
2017-Mar-20 21:33N 50°42' W 001°59'1111.1
2017-Mar-20 20:33N 50°32' W 001°53'2618.2
2017-Mar-20 19:07N 50°06' W 001°47'1018.1
2017-Mar-20 18:33N 49°56' W 001°44'1717.3
2017-Mar-20 17:34N 49°40' W 001°37'1 0.8
2017-Mar-20 16:33N 49°39' W 001°37'0 0.0
2017-Mar-20 15:33N 49°39' W 001°37'0 0.0
2017-Mar-20 14:33N 49°39' W 001°37'0 0.0
2017-Mar-20 13:34N 49°39' W 001°37'  
Track history (hours):
 
Tides and Currents Weather Stations Pressure Air Temp Water Temp Dewpoint Dewpoint Depression Visibility Wind Speed Wind Dir Waves Ship Positions

Barfleur

Operator: Brittany Ferries

Last reported at 2017-Mar-30 14:33 UTC. Time now 2017-Mar-30 14:39 UTC.
Position N 49°39' W 001°37'.

Length 158 m; draft 5 m.

Type: Passenger vessel. MMSI: 227289000.

Date/timePositionNaut miles runAvg speedWind from/ knotsBaromVisibWave heightAir tempDewpointWater temp
2017-Mar-30 14:33N 49°39' W 001°37'0 0.0
2017-Mar-30 13:33N 49°39' W 001°37'0 0.0
2017-Mar-30 12:33N 49°39' W 001°37'0 0.0
2017-Mar-30 11:33N 49°39' W 001°37'1414.2
2017-Mar-30 10:34N 49°53' W 001°39'1818.2
2017-Mar-30 09:33N 50°11' W 001°44'1818.1
2017-Mar-30 08:34N 50°28' W 001°51'1413.9
2017-Mar-30 07:33N 50°42' W 001°57'2 1.6
2017-Mar-30 06:33N 50°42' W 001°59'1 1.3
2017-Mar-30 05:33N 50°42' W 001°58'1312.8
2017-Mar-30 04:31N 50°30' W 001°51'1313.5
2017-Mar-30 03:32N 50°16' W 001°50'1313.0
2017-Mar-30 02:33N 50°03' W 001°50'1413.7
2017-Mar-30 01:33N 49°50' W 001°48'6 6.3
2017-Mar-30 00:33N 49°44' W 001°44'1 1.2
2017-Mar-29 23:33N 49°43' W 001°43'0 0.2
2017-Mar-29 22:33N 49°43' W 001°43'1 0.7
2017-Mar-29 21:34N 49°43' W 001°44'4 4.4
2017-Mar-29 20:33N 49°40' W 001°39'2 2.0
2017-Mar-29 19:33N 49°39' W 001°37'0 0.0
2017-Mar-29 18:33N 49°39' W 001°37'0 0.0
2017-Mar-29 17:33N 49°39' W 001°37'0 0.0
2017-Mar-29 16:33N 49°39' W 001°37'0 0.0
2017-Mar-29 15:34N 49°39' W 001°37'0 0.0
2017-Mar-29 14:34N 49°39' W 001°37'0 0.0
2017-Mar-29 13:33N 49°39' W 001°37'0 0.1
2017-Mar-29 12:33N 49°39' W 001°37'2 1.5
2017-Mar-29 11:33N 49°40' W 001°38'1717.1
2017-Mar-29 10:33N 49°57' W 001°41'1817.7
2017-Mar-29 09:34N 50°14' W 001°45'1817.8
2017-Mar-29 08:34N 50°32' W 001°52'1211.7
2017-Mar-29 07:33N 50°42' W 001°59'0 0.0
2017-Mar-29 06:33N 50°42' W 001°59'0 0.4
2017-Mar-29 05:33N 50°42' W 001°59'1413.5
2017-Mar-29 04:33N 50°29' W 001°53'1814.3
2017-Mar-29 03:17N 50°11' W 001°52'1013.5
2017-Mar-29 02:33N 50°01' W 001°51'1413.9
2017-Mar-29 01:34N 49°48' W 001°48'3 3.4
2017-Mar-29 00:33N 49°46' W 001°43'1 1.3
2017-Mar-28 23:33N 49°45' W 001°42'1 1.0
2017-Mar-28 22:34N 49°44' W 001°43'1 0.9
2017-Mar-28 21:33N 49°44' W 001°44'4 4.0
2017-Mar-28 20:33N 49°41' W 001°40'3 2.6
2017-Mar-28 19:34N 49°39' W 001°37'0 0.0
2017-Mar-28 18:33N 49°39' W 001°37'0 0.0
2017-Mar-28 17:33N 49°39' W 001°37'0 0.0
2017-Mar-28 16:33N 49°39' W 001°37'0 0.0
2017-Mar-28 15:33N 49°39' W 001°37'0 0.0
2017-Mar-28 14:33N 49°39' W 001°37'0 0.0
2017-Mar-28 13:33N 49°39' W 001°37'0 0.0
2017-Mar-28 12:33N 49°39' W 001°37'0 0.2
2017-Mar-28 11:34N 49°39' W 001°37'1514.6
2017-Mar-28 10:33N 49°53' W 001°43'1818.2
2017-Mar-28 09:33N 50°11' W 001°47'1818.2
2017-Mar-28 08:33N 50°29' W 001°51'1413.8
2017-Mar-28 07:34N 50°42' W 001°58'1 0.8
2017-Mar-28 06:34N 50°42' W 001°59'0 0.0
2017-Mar-28 05:33N 50°42' W 001°59'0 0.0
2017-Mar-28 04:33N 50°42' W 001°59'0 0.0
2017-Mar-28 03:33N 50°42' W 001°59'0 0.0
2017-Mar-28 02:33N 50°42' W 001°59'0 0.0
2017-Mar-28 01:33N 50°42' W 001°59'0 0.0
2017-Mar-28 00:33N 50°42' W 001°59'0 0.0
2017-Mar-27 23:33N 50°42' W 001°59'0 0.0
2017-Mar-27 22:33N 50°42' W 001°59'0 0.0
2017-Mar-27 21:33N 50°42' W 001°59'0 0.0
2017-Mar-27 20:33N 50°42' W 001°59'1211.8
2017-Mar-27 19:33N 50°32' W 001°52'1818.1
2017-Mar-27 18:33N 50°14' W 001°48'1818.1
2017-Mar-27 17:33N 49°56' W 001°42'1616.3
2017-Mar-27 16:34N 49°40' W 001°38'1 1.2
2017-Mar-27 15:33N 49°39' W 001°37'0 0.0
2017-Mar-27 14:34N 49°39' W 001°37'0 0.0
2017-Mar-27 13:34N 49°39' W 001°37'0 0.0
2017-Mar-27 12:33N 49°39' W 001°37'0 0.1
2017-Mar-27 11:34N 49°39' W 001°37'1313.3
2017-Mar-27 10:33N 49°52' W 001°43'1717.1
2017-Mar-27 09:33N 50°09' W 001°47'2018.7
2017-Mar-27 08:29N 50°29' W 001°51'1415.1
2017-Mar-27 07:34N 50°42' W 001°57'2 1.5
2017-Mar-27 06:34N 50°42' W 001°59'0 0.0
2017-Mar-27 05:33N 50°42' W 001°59'0 0.0
2017-Mar-27 04:33N 50°42' W 001°59'0 0.0
2017-Mar-27 03:34N 50°42' W 001°59'0 0.0
2017-Mar-27 02:34N 50°42' W 001°59'0 0.0
2017-Mar-27 01:34N 50°42' W 001°59'0 0.0
2017-Mar-27 00:33N 50°42' W 001°59'0 0.0
2017-Mar-26 23:33N 50°42' W 001°59'0 0.0
2017-Mar-26 22:33N 50°42' W 001°59'0 0.0
2017-Mar-26 21:34N 50°42' W 001°59'0 0.0
2017-Mar-26 20:34N 50°42' W 001°59'1211.9
2017-Mar-26 19:33N 50°31' W 001°52'1818.1
2017-Mar-26 18:33N 50°14' W 001°47'1818.0
2017-Mar-26 17:33N 49°56' W 001°43'1716.5
2017-Mar-26 16:34N 49°40' W 001°37'1 1.0
2017-Mar-26 15:33N 49°39' W 001°37'0 0.0
2017-Mar-26 14:34N 49°39' W 001°37'0 0.0
2017-Mar-26 13:33N 49°39' W 001°37'0 0.0
2017-Mar-26 12:33N 49°39' W 001°37'0 0.0
2017-Mar-26 11:33N 49°39' W 001°37'1312.5
2017-Mar-26 10:34N 49°50' W 001°45'1817.9
2017-Mar-26 09:33N 50°08' W 001°50'1918.3
2017-Mar-26 08:30N 50°27' W 001°51'1515.8
2017-Mar-26 07:34N 50°42' W 001°57'2 1.7
2017-Mar-26 06:34N 50°42' W 001°59'0 0.0
2017-Mar-26 05:34N 50°42' W 001°59'0 0.0
2017-Mar-26 04:34N 50°42' W 001°59'0 0.0
2017-Mar-26 03:34N 50°42' W 001°59'0 0.0
2017-Mar-26 02:34N 50°42' W 001°59'0 0.0
2017-Mar-26 01:34N 50°42' W 001°59'0 0.0
2017-Mar-26 00:33N 50°42' W 001°59'0 0.0
2017-Mar-25 23:33N 50°42' W 001°59'0 0.0
2017-Mar-25 22:33N 50°42' W 001°59'4 4.2
2017-Mar-25 21:33N 50°39' W 001°55'3617.3
2017-Mar-25 19:27N 50°04' W 001°42'1517.0
2017-Mar-25 18:33N 49°49' W 001°40'1010.1
2017-Mar-25 17:33N 49°39' W 001°37'0 0.0
2017-Mar-25 16:33N 49°39' W 001°37'0 0.0
2017-Mar-25 15:33N 49°39' W 001°37'0 0.0
2017-Mar-25 14:33N 49°39' W 001°37'0 0.0
2017-Mar-25 13:33N 49°39' W 001°37'0 0.5
2017-Mar-25 12:33N 49°39' W 001°37'1313.4
2017-Mar-25 11:33N 49°52' W 001°43'1817.8
2017-Mar-25 10:34N 50°10' W 001°47'1918.4
2017-Mar-25 09:32N 50°28' W 001°52'1515.0
2017-Mar-25 08:33N 50°42' W 001°59'1 0.5
2017-Mar-25 07:33N 50°42' W 001°59'0 0.0
2017-Mar-25 06:33N 50°42' W 001°59'0 0.0
2017-Mar-25 05:33N 50°42' W 001°59'0 0.0
2017-Mar-25 04:33N 50°42' W 001°59'0 0.0
2017-Mar-25 03:33N 50°42' W 001°59'0 0.0
2017-Mar-25 02:33N 50°42' W 001°59'0 0.0
2017-Mar-25 01:33N 50°42' W 001°59'0 0.0
2017-Mar-25 00:33N 50°42' W 001°59'0 0.0
2017-Mar-24 23:33N 50°42' W 001°59'0 0.0
2017-Mar-24 22:33N 50°42' W 001°59'0 0.1
2017-Mar-24 21:33N 50°42' W 001°59'1312.9
2017-Mar-24 20:33N 50°30' W 001°54'2317.4
2017-Mar-24 19:14N 50°07' W 001°51'1217.1
2017-Mar-24 18:33N 49°56' W 001°43'1716.8
2017-Mar-24 17:33N 49°40' W 001°38'1 1.3
2017-Mar-24 16:33N 49°39' W 001°37'0 0.0
2017-Mar-24 15:34N 49°39' W 001°37'0 0.0
2017-Mar-24 14:33N 49°39' W 001°37'0 0.0
2017-Mar-24 13:33N 49°39' W 001°37'0 0.3
2017-Mar-24 12:34N 49°39' W 001°37'1514.9
2017-Mar-24 11:33N 49°53' W 001°44'1818.0
2017-Mar-24 10:34N 50°11' W 001°47'1818.1
2017-Mar-24 09:33N 50°29' W 001°51'1414.2
2017-Mar-24 08:33N 50°42' W 001°59'0 0.2
2017-Mar-24 07:33N 50°42' W 001°59'0 0.3
2017-Mar-24 06:33N 50°42' W 001°59'6 6.0
2017-Mar-24 05:33N 50°39' W 001°51'1 0.8
2017-Mar-24 04:33N 50°39' W 001°50'1 0.8
2017-Mar-24 03:33N 50°38' W 001°49'1 0.6
2017-Mar-24 02:33N 50°38' W 001°48'2411.5
2017-Mar-24 00:29N 50°14' W 001°48'1111.8
2017-Mar-23 23:33N 50°04' W 001°45'1211.7
2017-Mar-23 22:33N 49°52' W 001°43'1212.0
2017-Mar-23 21:33N 49°40' W 001°39'2 1.8
2017-Mar-23 20:33N 49°39' W 001°37'0 0.0
2017-Mar-23 19:33N 49°39' W 001°37'0 0.0
2017-Mar-23 18:34N 49°39' W 001°37'0 0.0
2017-Mar-23 17:33N 49°39' W 001°37'0 0.0
2017-Mar-23 16:33N 49°39' W 001°37'0 0.0
2017-Mar-23 15:34N 49°39' W 001°37'0 0.0
2017-Mar-23 14:34N 49°39' W 001°37'0 0.0
2017-Mar-23 13:34N 49°39' W 001°37'0 0.0
2017-Mar-23 12:33N 49°39' W 001°37'1413.8
2017-Mar-23 11:34N 49°53' W 001°39'1817.9
2017-Mar-23 10:33N 50°10' W 001°47'1918.3
2017-Mar-23 09:32N 50°28' W 001°52'1414.9
2017-Mar-23 08:33N 50°42' W 001°58'1 0.8
2017-Mar-23 07:33N 50°42' W 001°59'1 1.4
2017-Mar-23 06:34N 50°42' W 001°57'1313.4
2017-Mar-23 05:33N 50°29' W 001°51'3015.2
2017-Mar-23 03:33N 49°59' W 001°44'1514.6
2017-Mar-23 02:33N 49°45' W 001°40'3 2.6
2017-Mar-23 01:33N 49°42' W 001°40'1 0.7
2017-Mar-23 00:33N 49°42' W 001°39'1 1.4
2017-Mar-22 23:33N 49°43' W 001°37'1 1.4
2017-Mar-22 22:33N 49°43' W 001°35'4 3.9
2017-Mar-22 21:33N 49°40' W 001°39'2 1.8
2017-Mar-22 20:33N 49°39' W 001°37'0 0.0
2017-Mar-22 19:33N 49°39' W 001°37'0 0.0
2017-Mar-22 18:33N 49°39' W 001°37'0 0.0
2017-Mar-22 17:33N 49°39' W 001°37'0 0.0
2017-Mar-22 16:33N 49°39' W 001°37'0 0.0
2017-Mar-22 15:33N 49°39' W 001°37'0 0.0
2017-Mar-22 14:33N 49°39' W 001°37'1 1.2
2017-Mar-22 13:33N 49°40' W 001°36'1817.6
2017-Mar-22 12:33N 49°57' W 001°39'1817.9
2017-Mar-22 11:33N 50°15' W 001°46'1817.7
2017-Mar-22 10:34N 50°32' W 001°52'1111.3
2017-Mar-22 09:33N 50°42' W 001°59'0 0.0
2017-Mar-22 08:33N 50°42' W 001°59'4 4.4
2017-Mar-22 07:33N 50°39' W 001°55'4 3.6
2017-Mar-22 06:33N 50°36' W 001°54'3213.3
2017-Mar-22 04:11N 50°04' W 001°49'914.6
2017-Mar-22 03:33N 49°55' W 001°46'1110.8
2017-Mar-22 02:33N 49°44' W 001°44'7 7.3
2017-Mar-22 01:33N 49°46' W 001°33'2 2.0
2017-Mar-22 00:33N 49°48' W 001°31'3 2.8
2017-Mar-21 23:33N 49°46' W 001°34'2 1.6
2017-Mar-21 22:33N 49°44' W 001°35'5 4.7
2017-Mar-21 21:33N 49°40' W 001°39'2 2.1
2017-Mar-21 20:33N 49°39' W 001°37'0 0.0
2017-Mar-21 19:33N 49°39' W 001°37'0 0.0
2017-Mar-21 18:34N 49°39' W 001°37'0 0.0
2017-Mar-21 17:33N 49°39' W 001°37'0 0.0
2017-Mar-21 16:34N 49°39' W 001°37'0 0.0
2017-Mar-21 15:34N 49°39' W 001°37'0 0.0
2017-Mar-21 14:33N 49°39' W 001°37'0 0.0
2017-Mar-21 13:33N 49°39' W 001°37'0 0.0
2017-Mar-21 12:33N 49°39' W 001°37'1313.4
2017-Mar-21 11:33N 49°52' W 001°39'1717.5
2017-Mar-21 10:33N 50°09' W 001°44'1918.2
2017-Mar-21 09:32N 50°27' W 001°51'1515.6
2017-Mar-21 08:33N 50°42' W 001°58'1 1.2
2017-Mar-21 07:33N 50°42' W 001°59'0 0.0
2017-Mar-21 06:33N 50°42' W 001°59'0 0.0
2017-Mar-21 05:33N 50°42' W 001°59'0 0.0
2017-Mar-21 04:33N 50°42' W 001°59'0 0.0
2017-Mar-21 03:33N 50°42' W 001°59'0 0.0
2017-Mar-21 02:33N 50°42' W 001°59'0 0.0
2017-Mar-21 01:33N 50°42' W 001°59'0 0.0
2017-Mar-21 00:33N 50°42' W 001°59'0 0.0
2017-Mar-20 23:33N 50°42' W 001°59'0 0.0
2017-Mar-20 22:33N 50°42' W 001°59'0 0.0
2017-Mar-20 21:33N 50°42' W 001°59'1111.1
2017-Mar-20 20:33N 50°32' W 001°53'2618.2
2017-Mar-20 19:07N 50°06' W 001°47'1018.1
2017-Mar-20 18:33N 49°56' W 001°44'1717.3
2017-Mar-20 17:34N 49°40' W 001°37'1 0.8
2017-Mar-20 16:33N 49°39' W 001°37'0 0.0
2017-Mar-20 15:33N 49°39' W 001°37'0 0.0
2017-Mar-20 14:33N 49°39' W 001°37'0 0.0
2017-Mar-20 13:34N 49°39' W 001°37'  

Dump ship's entire track history